sensor_id;sensor_type;location;lat;lon;timestamp;pressure;altitude;pressure_sealevel;temperature;humidity
56681;BME280;42558;52.388;13.390;2023-02-23T00:01:29;100937.96;;;3.54;100.00
56681;BME280;42558;52.388;13.390;2023-02-23T00:03:59;100942.00;;;3.51;100.00
56681;BME280;42558;52.388;13.390;2023-02-23T00:06:32;100940.61;;;3.51;100.00
56681;BME280;42558;52.388;13.390;2023-02-23T00:09:04;100943.46;;;3.48;100.00
56681;BME280;42558;52.388;13.390;2023-02-23T00:11:37;100944.76;;;3.47;100.00
56681;BME280;42558;52.388;13.390;2023-02-23T00:14:07;100944.22;;;3.46;100.00
56681;BME280;42558;52.388;13.390;2023-02-23T00:16:37;100938.95;;;3.45;100.00
56681;BME280;42558;52.388;13.390;2023-02-23T00:19:06;100935.43;;;3.44;100.00
56681;BME280;42558;52.388;13.390;2023-02-23T00:21:37;100933.46;;;3.42;100.00
56681;BME280;42558;52.388;13.390;2023-02-23T00:24:10;100926.31;;;3.42;100.00
56681;BME280;42558;52.388;13.390;2023-02-23T00:26:44;100923.13;;;3.41;100.00
56681;BME280;42558;52.388;13.390;2023-02-23T00:29:18;100917.77;;;3.38;100.00
56681;BME280;42558;52.388;13.390;2023-02-23T00:31:50;100916.45;;;3.39;100.00
56681;BME280;42558;52.388;13.390;2023-02-23T00:34:20;100913.30;;;3.39;100.00
56681;BME280;42558;52.388;13.390;2023-02-23T00:36:53;100919.68;;;3.38;100.00
56681;BME280;42558;52.388;13.390;2023-02-23T00:39:24;100918.80;;;3.37;100.00
56681;BME280;42558;52.388;13.390;2023-02-23T00:41:57;100917.49;;;3.35;100.00
56681;BME280;42558;52.388;13.390;2023-02-23T00:44:32;100913.29;;;3.35;100.00
56681;BME280;42558;52.388;13.390;2023-02-23T00:47:02;100918.45;;;3.34;100.00
56681;BME280;42558;52.388;13.390;2023-02-23T00:49:33;100916.24;;;3.35;100.00
56681;BME280;42558;52.388;13.390;2023-02-23T00:52:03;100918.60;;;3.33;100.00
56681;BME280;42558;52.388;13.390;2023-02-23T00:54:33;100912.80;;;3.31;100.00
56681;BME280;42558;52.388;13.390;2023-02-23T00:57:03;100907.23;;;3.32;100.00
56681;BME280;42558;52.388;13.390;2023-02-23T00:59:33;100914.04;;;3.32;100.00
56681;BME280;42558;52.388;13.390;2023-02-23T01:02:03;100910.14;;;3.31;100.00
56681;BME280;42558;52.388;13.390;2023-02-23T01:04:33;100912.42;;;3.31;100.00
56681;BME280;42558;52.388;13.390;2023-02-23T01:07:03;100911.76;;;3.31;100.00
56681;BME280;42558;52.388;13.390;2023-02-23T01:09:34;100908.59;;;3.30;100.00
56681;BME280;42558;52.388;13.390;2023-02-23T01:12:06;100910.89;;;3.31;100.00
56681;BME280;42558;52.388;13.390;2023-02-23T01:14:38;100911.00;;;3.30;100.00
56681;BME280;42558;52.388;13.390;2023-02-23T01:17:09;100911.84;;;3.29;100.00
56681;BME280;42558;52.388;13.390;2023-02-23T01:19:38;100917.75;;;3.30;100.00
56681;BME280;42558;52.388;13.390;2023-02-23T01:22:07;100920.48;;;3.28;100.00
56681;BME280;42558;52.388;13.390;2023-02-23T01:24:35;100918.09;;;3.25;100.00
56681;BME280;42558;52.388;13.390;2023-02-23T01:27:07;100912.95;;;3.23;100.00
56681;BME280;42558;52.388;13.390;2023-02-23T01:29:37;100912.42;;;3.23;100.00
56681;BME280;42558;52.388;13.390;2023-02-23T01:32:07;100906.04;;;3.21;100.00
56681;BME280;42558;52.388;13.390;2023-02-23T01:34:37;100904.44;;;3.20;100.00
56681;BME280;42558;52.388;13.390;2023-02-23T01:37:06;100902.58;;;3.17;100.00
56681;BME280;42558;52.388;13.390;2023-02-23T01:39:37;100900.21;;;3.15;100.00
56681;BME280;42558;52.388;13.390;2023-02-23T01:42:15;100896.46;;;3.16;100.00
56681;BME280;42558;52.388;13.390;2023-02-23T01:47:14;100894.16;;;3.12;100.00
56681;BME280;42558;52.388;13.390;2023-02-23T01:49:46;100891.20;;;3.11;100.00
56681;BME280;42558;52.388;13.390;2023-02-23T01:52:17;100889.42;;;3.10;100.00
56681;BME280;42558;52.388;13.390;2023-02-23T01:54:52;100884.46;;;3.08;100.00
56681;BME280;42558;52.388;13.390;2023-02-23T01:57:24;100880.76;;;3.07;100.00
56681;BME280;42558;52.388;13.390;2023-02-23T01:59:55;100885.20;;;3.05;100.00
56681;BME280;42558;52.388;13.390;2023-02-23T02:02:28;100884.11;;;3.05;100.00
56681;BME280;42558;52.388;13.390;2023-02-23T02:05:03;100874.67;;;3.03;100.00
56681;BME280;42558;52.388;13.390;2023-02-23T02:07:37;100876.21;;;3.02;100.00
56681;BME280;42558;52.388;13.390;2023-02-23T02:10:09;100874.82;;;2.98;100.00
56681;BME280;42558;52.388;13.390;2023-02-23T02:12:51;100866.98;;;2.98;100.00
56681;BME280;42558;52.388;13.390;2023-02-23T02:15:30;100866.48;;;2.98;100.00
56681;BME280;42558;52.388;13.390;2023-02-23T02:18:33;100863.64;;;2.97;100.00
56681;BME280;42558;52.388;13.390;2023-02-23T02:21:41;100862.17;;;2.99;100.00
56681;BME280;42558;52.388;13.390;2023-02-23T02:27:56;100861.04;;;2.97;100.00
56681;BME280;42558;52.388;13.390;2023-02-23T02:42:33;100848.50;;;2.89;100.00
56681;BME280;42558;52.388;13.390;2023-02-23T02:45:16;100846.02;;;2.88;100.00
56681;BME280;42558;52.388;13.390;2023-02-23T02:48:14;100845.25;;;2.86;100.00
56681;BME280;42558;52.388;13.390;2023-02-23T02:51:00;100841.09;;;2.86;100.00
56681;BME280;42558;52.388;13.390;2023-02-23T02:56:17;100841.30;;;2.83;100.00
56681;BME280;42558;52.388;13.390;2023-02-23T02:58:51;100841.05;;;2.82;100.00
56681;BME280;42558;52.388;13.390;2023-02-23T03:01:22;100840.35;;;2.81;100.00
56681;BME280;42558;52.388;13.390;2023-02-23T03:04:24;100838.09;;;2.81;100.00
56681;BME280;42558;52.388;13.390;2023-02-23T03:07:23;100838.12;;;2.78;100.00
56681;BME280;42558;52.388;13.390;2023-02-23T03:20:36;100833.63;;;2.71;100.00
56681;BME280;42558;52.388;13.390;2023-02-23T03:26:55;100833.45;;;2.67;100.00
56681;BME280;42558;52.388;13.390;2023-02-23T03:30:15;100832.48;;;2.65;100.00
56681;BME280;42558;52.388;13.390;2023-02-23T03:33:17;100828.98;;;2.61;100.00
56681;BME280;42558;52.388;13.390;2023-02-23T03:36:18;100826.80;;;2.59;100.00
56681;BME280;42558;52.388;13.390;2023-02-23T03:39:57;100830.15;;;2.56;100.00
56681;BME280;42558;52.388;13.390;2023-02-23T03:42:50;100827.73;;;2.53;100.00
56681;BME280;42558;52.388;13.390;2023-02-23T03:45:45;100825.57;;;2.51;100.00
56681;BME280;42558;52.388;13.390;2023-02-23T03:48:38;100828.61;;;2.49;100.00
56681;BME280;42558;52.388;13.390;2023-02-23T03:51:32;100815.49;;;2.47;100.00
56681;BME280;42558;52.388;13.390;2023-02-23T03:54:38;100816.20;;;2.43;100.00
56681;BME280;42558;52.388;13.390;2023-02-23T03:57:33;100815.32;;;2.40;100.00
56681;BME280;42558;52.388;13.390;2023-02-23T04:00:31;100810.84;;;2.36;100.00
56681;BME280;42558;52.388;13.390;2023-02-23T04:03:23;100809.94;;;2.35;100.00
56681;BME280;42558;52.388;13.390;2023-02-23T04:06:16;100808.03;;;2.32;100.00
56681;BME280;42558;52.388;13.390;2023-02-23T04:09:06;100807.95;;;2.30;100.00
56681;BME280;42558;52.388;13.390;2023-02-23T04:15:06;100806.45;;;2.28;100.00
56681;BME280;42558;52.388;13.390;2023-02-23T04:17:37;100803.88;;;2.25;100.00
56681;BME280;42558;52.388;13.390;2023-02-23T04:20:09;100804.81;;;2.23;100.00
56681;BME280;42558;52.388;13.390;2023-02-23T04:22:40;100803.09;;;2.19;100.00
56681;BME280;42558;52.388;13.390;2023-02-23T04:25:13;100805.84;;;2.19;100.00
56681;BME280;42558;52.388;13.390;2023-02-23T04:27:46;100806.88;;;2.19;100.00
56681;BME280;42558;52.388;13.390;2023-02-23T04:30:17;100805.63;;;2.18;100.00
56681;BME280;42558;52.388;13.390;2023-02-23T04:32:49;100808.43;;;2.11;100.00
56681;BME280;42558;52.388;13.390;2023-02-23T04:35:19;100806.79;;;2.10;100.00
56681;BME280;42558;52.388;13.390;2023-02-23T04:37:49;100807.20;;;2.07;100.00
56681;BME280;42558;52.388;13.390;2023-02-23T04:40:19;100803.80;;;2.05;100.00
56681;BME280;42558;52.388;13.390;2023-02-23T04:42:53;100801.55;;;2.06;100.00
56681;BME280;42558;52.388;13.390;2023-02-23T04:45:25;100801.07;;;2.02;100.00
56681;BME280;42558;52.388;13.390;2023-02-23T04:47:55;100796.48;;;1.98;100.00
56681;BME280;42558;52.388;13.390;2023-02-23T04:50:25;100795.90;;;1.96;100.00
56681;BME280;42558;52.388;13.390;2023-02-23T04:52:55;100791.05;;;1.93;100.00
56681;BME280;42558;52.388;13.390;2023-02-23T04:55:25;100793.35;;;1.90;100.00
56681;BME280;42558;52.388;13.390;2023-02-23T04:58:00;100790.83;;;1.87;100.00
56681;BME280;42558;52.388;13.390;2023-02-23T05:00:30;100790.52;;;1.85;100.00
56681;BME280;42558;52.388;13.390;2023-02-23T05:03:02;100784.20;;;1.80;100.00
56681;BME280;42558;52.388;13.390;2023-02-23T05:05:32;100787.24;;;1.79;100.00
56681;BME280;42558;52.388;13.390;2023-02-23T05:08:02;100785.47;;;1.78;100.00
56681;BME280;42558;52.388;13.390;2023-02-23T05:10:32;100789.80;;;1.74;100.00
56681;BME280;42558;52.388;13.390;2023-02-23T05:13:02;100788.30;;;1.72;100.00
56681;BME280;42558;52.388;13.390;2023-02-23T05:15:32;100790.95;;;1.69;100.00
56681;BME280;42558;52.388;13.390;2023-02-23T05:18:02;100787.83;;;1.66;100.00
56681;BME280;42558;52.388;13.390;2023-02-23T05:20:32;100788.85;;;1.65;100.00
56681;BME280;42558;52.388;13.390;2023-02-23T05:23:02;100791.66;;;1.62;100.00
56681;BME280;42558;52.388;13.390;2023-02-23T05:25:32;100790.72;;;1.58;100.00
56681;BME280;42558;52.388;13.390;2023-02-23T05:28:02;100789.98;;;1.56;100.00
56681;BME280;42558;52.388;13.390;2023-02-23T05:30:32;100787.91;;;1.57;100.00
56681;BME280;42558;52.388;13.390;2023-02-23T05:33:02;100791.77;;;1.54;100.00
56681;BME280;42558;52.388;13.390;2023-02-23T05:35:32;100794.17;;;1.47;100.00
56681;BME280;42558;52.388;13.390;2023-02-23T05:38:02;100792.59;;;1.43;100.00
56681;BME280;42558;52.388;13.390;2023-02-23T05:40:30;100794.70;;;1.44;100.00
56681;BME280;42558;52.388;13.390;2023-02-23T05:42:59;100795.41;;;1.41;100.00
56681;BME280;42558;52.388;13.390;2023-02-23T05:45:27;100799.45;;;1.39;100.00
56681;BME280;42558;52.388;13.390;2023-02-23T05:47:56;100798.23;;;1.39;100.00
56681;BME280;42558;52.388;13.390;2023-02-23T05:50:25;100803.05;;;1.38;100.00
56681;BME280;42558;52.388;13.390;2023-02-23T05:52:52;100804.09;;;1.38;100.00
56681;BME280;42558;52.388;13.390;2023-02-23T05:55:21;100803.79;;;1.32;100.00
56681;BME280;42558;52.388;13.390;2023-02-23T05:57:49;100799.73;;;1.27;100.00
56681;BME280;42558;52.388;13.390;2023-02-23T06:00:18;100802.52;;;1.24;100.00
56681;BME280;42558;52.388;13.390;2023-02-23T06:02:46;100809.58;;;1.23;100.00
56681;BME280;42558;52.388;13.390;2023-02-23T06:05:14;100811.05;;;1.18;100.00
56681;BME280;42558;52.388;13.390;2023-02-23T06:07:43;100813.64;;;1.12;100.00
56681;BME280;42558;52.388;13.390;2023-02-23T06:10:11;100814.94;;;1.13;100.00
56681;BME280;42558;52.388;13.390;2023-02-23T06:12:40;100818.34;;;1.18;100.00
56681;BME280;42558;52.388;13.390;2023-02-23T06:15:09;100817.19;;;1.23;100.00
56681;BME280;42558;52.388;13.390;2023-02-23T06:17:36;100817.61;;;1.25;100.00
56681;BME280;42558;52.388;13.390;2023-02-23T06:20:06;100816.86;;;1.27;100.00
56681;BME280;42558;52.388;13.390;2023-02-23T06:22:33;100822.08;;;1.24;100.00
56681;BME280;42558;52.388;13.390;2023-02-23T06:25:02;100824.00;;;1.24;100.00
56681;BME280;42558;52.388;13.390;2023-02-23T06:27:33;100819.44;;;1.26;100.00
56681;BME280;42558;52.388;13.390;2023-02-23T06:30:02;100822.45;;;1.28;100.00
56681;BME280;42558;52.388;13.390;2023-02-23T06:32:30;100822.86;;;1.32;100.00
56681;BME280;42558;52.388;13.390;2023-02-23T06:34:58;100824.53;;;1.34;100.00
56681;BME280;42558;52.388;13.390;2023-02-23T06:37:27;100824.85;;;1.37;100.00
56681;BME280;42558;52.388;13.390;2023-02-23T06:39:55;100824.77;;;1.43;100.00
56681;BME280;42558;52.388;13.390;2023-02-23T06:42:24;100826.48;;;1.46;100.00
56681;BME280;42558;52.388;13.390;2023-02-23T06:44:52;100825.92;;;1.52;100.00
56681;BME280;42558;52.388;13.390;2023-02-23T06:47:20;100828.48;;;1.58;100.00
56681;BME280;42558;52.388;13.390;2023-02-23T06:49:49;100826.23;;;1.61;100.00
56681;BME280;42558;52.388;13.390;2023-02-23T06:52:17;100827.55;;;1.63;100.00
56681;BME280;42558;52.388;13.390;2023-02-23T06:54:46;100830.84;;;1.67;100.00
56681;BME280;42558;52.388;13.390;2023-02-23T06:57:14;100826.42;;;1.68;100.00
56681;BME280;42558;52.388;13.390;2023-02-23T06:59:42;100827.58;;;1.71;100.00
56681;BME280;42558;52.388;13.390;2023-02-23T07:02:12;100827.70;;;1.76;100.00
56681;BME280;42558;52.388;13.390;2023-02-23T07:04:40;100831.55;;;1.81;100.00
56681;BME280;42558;52.388;13.390;2023-02-23T07:07:09;100831.34;;;1.80;100.00
56681;BME280;42558;52.388;13.390;2023-02-23T07:09:39;100833.16;;;1.82;100.00
56681;BME280;42558;52.388;13.390;2023-02-23T07:12:11;100831.84;;;1.90;100.00
56681;BME280;42558;52.388;13.390;2023-02-23T07:14:42;100837.20;;;1.89;100.00
56681;BME280;42558;52.388;13.390;2023-02-23T07:17:12;100836.09;;;1.96;100.00
56681;BME280;42558;52.388;13.390;2023-02-23T07:19:42;100837.31;;;2.03;100.00
56681;BME280;42558;52.388;13.390;2023-02-23T07:22:12;100835.45;;;2.07;100.00
56681;BME280;42558;52.388;13.390;2023-02-23T07:24:42;100838.41;;;2.11;100.00
56681;BME280;42558;52.388;13.390;2023-02-23T07:27:12;100839.60;;;2.14;100.00
56681;BME280;42558;52.388;13.390;2023-02-23T07:29:42;100837.25;;;2.15;100.00
56681;BME280;42558;52.388;13.390;2023-02-23T07:32:12;100842.39;;;2.18;100.00
56681;BME280;42558;52.388;13.390;2023-02-23T07:34:42;100838.61;;;2.19;100.00
56681;BME280;42558;52.388;13.390;2023-02-23T07:37:12;100837.95;;;2.26;100.00
56681;BME280;42558;52.388;13.390;2023-02-23T07:39:42;100836.79;;;2.27;100.00
56681;BME280;42558;52.388;13.390;2023-02-23T07:42:13;100836.95;;;2.31;100.00
56681;BME280;42558;52.388;13.390;2023-02-23T07:44:43;100834.19;;;2.35;100.00
56681;BME280;42558;52.388;13.390;2023-02-23T07:47:13;100830.54;;;2.38;100.00
56681;BME280;42558;52.388;13.390;2023-02-23T07:49:44;100831.55;;;2.37;100.00
56681;BME280;42558;52.388;13.390;2023-02-23T07:52:17;100831.70;;;2.44;100.00
56681;BME280;42558;52.388;13.390;2023-02-23T07:54:47;100826.79;;;2.55;100.00
56681;BME280;42558;52.388;13.390;2023-02-23T07:57:17;100827.38;;;2.64;100.00
56681;BME280;42558;52.388;13.390;2023-02-23T07:59:49;100826.65;;;2.63;100.00
56681;BME280;42558;52.388;13.390;2023-02-23T08:02:19;100825.25;;;2.67;100.00
56681;BME280;42558;52.388;13.390;2023-02-23T08:04:49;100818.34;;;2.71;100.00
56681;BME280;42558;52.388;13.390;2023-02-23T08:07:23;100820.98;;;2.80;100.00
56681;BME280;42558;52.388;13.390;2023-02-23T08:09:54;100816.16;;;3.03;100.00
56681;BME280;42558;52.388;13.390;2023-02-23T08:12:24;100817.36;;;3.26;100.00
56681;BME280;42558;52.388;13.390;2023-02-23T08:14:54;100820.20;;;3.20;100.00
56681;BME280;42558;52.388;13.390;2023-02-23T08:17:24;100820.66;;;3.22;100.00
56681;BME280;42558;52.388;13.390;2023-02-23T08:19:54;100824.16;;;3.31;100.00
56681;BME280;42558;52.388;13.390;2023-02-23T08:22:24;100825.50;;;3.34;100.00
56681;BME280;42558;52.388;13.390;2023-02-23T08:24:54;100824.87;;;3.35;100.00
56681;BME280;42558;52.388;13.390;2023-02-23T08:27:25;100828.48;;;3.34;100.00
56681;BME280;42558;52.388;13.390;2023-02-23T08:29:56;100831.04;;;3.41;100.00
56681;BME280;42558;52.388;13.390;2023-02-23T08:32:24;100829.00;;;3.50;100.00
56681;BME280;42558;52.388;13.390;2023-02-23T08:34:53;100829.69;;;3.50;100.00
56681;BME280;42558;52.388;13.390;2023-02-23T08:37:21;100827.56;;;3.61;100.00
56681;BME280;42558;52.388;13.390;2023-02-23T08:39:50;100826.48;;;3.61;100.00
56681;BME280;42558;52.388;13.390;2023-02-23T08:42:18;100827.25;;;3.50;100.00
56681;BME280;42558;52.388;13.390;2023-02-23T08:44:46;100826.65;;;3.65;100.00
56681;BME280;42558;52.388;13.390;2023-02-23T08:47:19;100822.83;;;3.65;100.00
56681;BME280;42558;52.388;13.390;2023-02-23T08:49:53;100823.92;;;3.66;100.00
56681;BME280;42558;52.388;13.390;2023-02-23T08:52:22;100821.84;;;3.58;100.00
56681;BME280;42558;52.388;13.390;2023-02-23T08:54:53;100817.70;;;3.63;100.00
56681;BME280;42558;52.388;13.390;2023-02-23T08:57:25;100819.05;;;3.62;100.00
56681;BME280;42558;52.388;13.390;2023-02-23T08:59:55;100815.98;;;3.71;100.00
56681;BME280;42558;52.388;13.390;2023-02-23T09:02:25;100819.13;;;3.89;100.00
56681;BME280;42558;52.388;13.390;2023-02-23T09:04:56;100823.15;;;3.97;100.00
56681;BME280;42558;52.388;13.390;2023-02-23T09:07:26;100824.73;;;3.97;100.00
56681;BME280;42558;52.388;13.390;2023-02-23T09:09:57;100824.80;;;4.08;100.00
56681;BME280;42558;52.388;13.390;2023-02-23T09:12:27;100825.36;;;4.26;100.00
56681;BME280;42558;52.388;13.390;2023-02-23T09:14:57;100822.48;;;4.37;100.00
56681;BME280;42558;52.388;13.390;2023-02-23T09:17:27;100821.39;;;4.36;100.00
56681;BME280;42558;52.388;13.390;2023-02-23T09:19:57;100821.42;;;4.50;100.00
56681;BME280;42558;52.388;13.390;2023-02-23T09:22:26;100822.92;;;4.57;100.00
56681;BME280;42558;52.388;13.390;2023-02-23T09:24:56;100825.27;;;4.73;100.00
56681;BME280;42558;52.388;13.390;2023-02-23T09:27:26;100827.17;;;4.73;100.00
56681;BME280;42558;52.388;13.390;2023-02-23T09:29:56;100828.05;;;4.59;100.00
56681;BME280;42558;52.388;13.390;2023-02-23T09:32:26;100826.27;;;4.76;100.00
56681;BME280;42558;52.388;13.390;2023-02-23T09:34:56;100830.61;;;4.99;100.00
56681;BME280;42558;52.388;13.390;2023-02-23T09:37:26;100828.92;;;5.15;100.00
56681;BME280;42558;52.388;13.390;2023-02-23T09:39:56;100827.89;;;5.39;99.90
56681;BME280;42558;52.388;13.390;2023-02-23T09:42:45;100831.84;;;5.47;98.90
56681;BME280;42558;52.388;13.390;2023-02-23T09:45:28;100831.80;;;5.76;99.14
56681;BME280;42558;52.388;13.390;2023-02-23T09:48:05;100829.09;;;6.04;98.37
56681;BME280;42558;52.388;13.390;2023-02-23T09:50:42;100824.60;;;6.38;96.39
56681;BME280;42558;52.388;13.390;2023-02-23T09:56:35;100822.70;;;6.44;96.07
56681;BME280;42558;52.388;13.390;2023-02-23T09:59:13;100819.77;;;6.86;94.80
56681;BME280;42558;52.388;13.390;2023-02-23T10:04:28;100820.56;;;6.96;93.34
56681;BME280;42558;52.388;13.390;2023-02-23T10:07:22;100818.56;;;7.36;91.11
56681;BME280;42558;52.388;13.390;2023-02-23T10:11:07;100817.17;;;7.69;88.62
56681;BME280;42558;52.388;13.390;2023-02-23T10:13:41;100819.91;;;7.21;91.03
56681;BME280;42558;52.388;13.390;2023-02-23T10:16:28;100819.97;;;7.23;91.75
56681;BME280;42558;52.388;13.390;2023-02-23T10:19:27;100815.66;;;7.33;93.70
56681;BME280;42558;52.388;13.390;2023-02-23T10:22:05;100818.13;;;7.79;89.71
56681;BME280;42558;52.388;13.390;2023-02-23T10:24:44;100814.08;;;7.64;91.76
56681;BME280;42558;52.388;13.390;2023-02-23T10:27:20;100808.60;;;8.18;89.98
56681;BME280;42558;52.388;13.390;2023-02-23T10:29:57;100804.90;;;8.54;86.90
56681;BME280;42558;52.388;13.390;2023-02-23T10:35:38;100805.38;;;9.36;83.26
56681;BME280;42558;52.388;13.390;2023-02-23T10:38:17;100806.41;;;9.08;84.46
56681;BME280;42558;52.388;13.390;2023-02-23T10:40:53;100803.44;;;9.17;84.45
56681;BME280;42558;52.388;13.390;2023-02-23T10:43:24;100803.95;;;9.08;83.70
56681;BME280;42558;52.388;13.390;2023-02-23T10:45:54;100795.13;;;9.14;84.86
56681;BME280;42558;52.388;13.390;2023-02-23T10:48:28;100789.63;;;9.28;85.75
56681;BME280;42558;52.388;13.390;2023-02-23T10:51:00;100789.09;;;9.37;84.03
56681;BME280;42558;52.388;13.390;2023-02-23T10:53:35;100790.66;;;9.18;84.86
56681;BME280;42558;52.388;13.390;2023-02-23T10:56:10;100791.23;;;9.48;85.54
56681;BME280;42558;52.388;13.390;2023-02-23T10:58:56;100791.88;;;9.95;82.65
56681;BME280;42558;52.388;13.390;2023-02-23T11:01:40;100794.04;;;9.98;82.00
56681;BME280;42558;52.388;13.390;2023-02-23T11:04:33;100790.53;;;9.87;83.10
56681;BME280;42558;52.388;13.390;2023-02-23T11:07:17;100795.06;;;9.37;84.73
56681;BME280;42558;52.388;13.390;2023-02-23T11:09:50;100798.54;;;9.17;85.47
56681;BME280;42558;52.388;13.390;2023-02-23T11:12:24;100794.80;;;9.33;86.65
56681;BME280;42558;52.388;13.390;2023-02-23T11:14:57;100792.48;;;9.80;84.70
56681;BME280;42558;52.388;13.390;2023-02-23T11:17:35;100793.35;;;9.69;85.96
56681;BME280;42558;52.388;13.390;2023-02-23T11:20:29;100796.09;;;9.65;85.45
56681;BME280;42558;52.388;13.390;2023-02-23T11:23:22;100791.92;;;9.47;86.38
56681;BME280;42558;52.388;13.390;2023-02-23T11:25:57;100789.09;;;9.65;87.69
56681;BME280;42558;52.388;13.390;2023-02-23T11:28:40;100784.88;;;9.46;86.89
56681;BME280;42558;52.388;13.390;2023-02-23T11:31:29;100786.19;;;9.51;88.26
56681;BME280;42558;52.388;13.390;2023-02-23T11:34:04;100782.42;;;9.66;87.80
56681;BME280;42558;52.388;13.390;2023-02-23T11:36:36;100783.79;;;9.64;87.96
56681;BME280;42558;52.388;13.390;2023-02-23T11:39:19;100777.67;;;9.76;87.69
56681;BME280;42558;52.388;13.390;2023-02-23T11:42:16;100772.11;;;9.58;88.63
56681;BME280;42558;52.388;13.390;2023-02-23T11:45:05;100771.58;;;9.29;88.50
56681;BME280;42558;52.388;13.390;2023-02-23T11:47:40;100765.31;;;9.13;89.30
56681;BME280;42558;52.388;13.390;2023-02-23T11:50:22;100758.05;;;9.01;90.89
56681;BME280;42558;52.388;13.390;2023-02-23T11:53:14;100755.06;;;9.18;90.77
56681;BME280;42558;52.388;13.390;2023-02-23T11:55:51;100751.77;;;9.21;89.42
56681;BME280;42558;52.388;13.390;2023-02-23T11:58:45;100748.02;;;9.08;89.89
56681;BME280;42558;52.388;13.390;2023-02-23T12:01:27;100750.41;;;9.13;90.09
56681;BME280;42558;52.388;13.390;2023-02-23T12:04:03;100744.20;;;9.19;91.28
56681;BME280;42558;52.388;13.390;2023-02-23T12:06:39;100742.55;;;9.44;91.19
56681;BME280;42558;52.388;13.390;2023-02-23T12:09:30;100741.36;;;9.37;90.15
56681;BME280;42558;52.388;13.390;2023-02-23T12:12:10;100740.36;;;9.20;91.04
56681;BME280;42558;52.388;13.390;2023-02-23T12:14:55;100732.27;;;9.20;91.05
56681;BME280;42558;52.388;13.390;2023-02-23T12:17:43;100737.05;;;9.31;92.07
56681;BME280;42558;52.388;13.390;2023-02-23T12:20:31;100736.18;;;9.41;90.45
56681;BME280;42558;52.388;13.390;2023-02-23T12:23:11;100739.77;;;9.36;90.99
56681;BME280;42558;52.388;13.390;2023-02-23T12:25:55;100733.55;;;9.61;90.67
56681;BME280;42558;52.388;13.390;2023-02-23T12:29:18;100732.90;;;9.85;89.55
56681;BME280;42558;52.388;13.390;2023-02-23T12:32:24;100733.13;;;9.79;88.43
56681;BME280;42558;52.388;13.390;2023-02-23T12:37:42;100730.86;;;9.68;89.16
56681;BME280;42558;52.388;13.390;2023-02-23T12:40:29;100726.11;;;9.68;89.03
56681;BME280;42558;52.388;13.390;2023-02-23T12:46:02;100726.52;;;9.61;89.96
56681;BME280;42558;52.388;13.390;2023-02-23T12:51:39;100718.69;;;9.75;90.53
56681;BME280;42558;52.388;13.390;2023-02-23T12:54:14;100716.42;;;9.77;90.74
56681;BME280;42558;52.388;13.390;2023-02-23T13:00:01;100713.94;;;9.64;90.00
56681;BME280;42558;52.388;13.390;2023-02-23T13:03:26;100716.09;;;9.68;90.12
56681;BME280;42558;52.388;13.390;2023-02-23T13:06:27;100708.83;;;9.74;90.05
56681;BME280;42558;52.388;13.390;2023-02-23T13:13:04;100706.84;;;10.03;89.41
56681;BME280;42558;52.388;13.390;2023-02-23T13:20:47;100700.29;;;9.77;89.57
56681;BME280;42558;52.388;13.390;2023-02-23T13:31:43;100695.95;;;10.04;89.52
56681;BME280;42558;52.388;13.390;2023-02-23T13:35:05;100694.68;;;10.01;89.12
56681;BME280;42558;52.388;13.390;2023-02-23T13:37:12;100691.10;;;9.85;90.51
56681;BME280;42558;52.388;13.390;2023-02-23T13:39:54;100693.30;;;10.03;90.28
56681;BME280;42558;52.388;13.390;2023-02-23T13:48:48;100691.41;;;9.94;90.54
56681;BME280;42558;52.388;13.390;2023-02-23T13:51:43;100694.63;;;9.86;90.94
56681;BME280;42558;52.388;13.390;2023-02-23T13:56:53;100693.58;;;9.98;91.07
56681;BME280;42558;52.388;13.390;2023-02-23T13:59:44;100692.45;;;9.94;90.93
56681;BME280;42558;52.388;13.390;2023-02-23T14:02:36;100699.77;;;9.78;92.34
56681;BME280;42558;52.388;13.390;2023-02-23T14:07:44;100694.41;;;9.62;93.25
56681;BME280;42558;52.388;13.390;2023-02-23T14:10:21;100696.90;;;9.53;94.02
56681;BME280;42558;52.388;13.390;2023-02-23T14:13:24;100702.02;;;9.54;94.57
56681;BME280;42558;52.388;13.390;2023-02-23T14:16:19;100707.50;;;9.47;95.51
56681;BME280;42558;52.388;13.390;2023-02-23T14:19:31;100705.55;;;9.46;95.75
56681;BME280;42558;52.388;13.390;2023-02-23T14:22:15;100702.88;;;9.42;96.02
56681;BME280;42558;52.388;13.390;2023-02-23T14:31:00;100710.11;;;9.35;96.85
56681;BME280;42558;52.388;13.390;2023-02-23T14:41:49;100712.56;;;9.16;99.43
56681;BME280;42558;52.388;13.390;2023-02-23T14:44:27;100713.54;;;9.11;100.00
56681;BME280;42558;52.388;13.390;2023-02-23T14:49:49;100717.90;;;9.01;100.00
56681;BME280;42558;52.388;13.390;2023-02-23T14:57:42;100715.30;;;8.75;100.00
56681;BME280;42558;52.388;13.390;2023-02-23T15:00:23;100711.41;;;8.65;100.00
56681;BME280;42558;52.388;13.390;2023-02-23T15:03:04;100714.00;;;8.63;100.00
56681;BME280;42558;52.388;13.390;2023-02-23T15:05:45;100714.38;;;8.57;100.00
56681;BME280;42558;52.388;13.390;2023-02-23T15:08:19;100714.34;;;8.46;100.00
56681;BME280;42558;52.388;13.390;2023-02-23T15:11:06;100710.63;;;8.30;100.00
56681;BME280;42558;52.388;13.390;2023-02-23T15:13:42;100709.78;;;8.15;100.00
56681;BME280;42558;52.388;13.390;2023-02-23T15:16:35;100711.36;;;8.00;100.00
56681;BME280;42558;52.388;13.390;2023-02-23T15:19:06;100710.17;;;7.94;100.00
56681;BME280;42558;52.388;13.390;2023-02-23T15:21:36;100708.56;;;7.86;100.00